Time;durP1;ratioP1;P1;durP2;ratioP2;P2;SDS_P1;SDS_P2;PMS_P1;PMS_P2;Temp;Humidity;BMP_temperature;BMP_pressure;BME280_temperature;BME280_humidity;BME280_pressure;Samples;Min_cycle;Max_cycle;Signal;HPM_P1;HPM_P2
2022/04/13 00:01:29;;;;;;;10.80;5.05;;;;;;;;;;5064563;28;20037;-68
2022/04/13 00:03:55;;;;;;;11.07;4.80;;;;;;;;;;5065823;28;20101;-68
2022/04/13 00:06:21;;;;;;;9.82;4.22;;;;;;;;;;5067685;28;20032;-68
2022/04/13 00:08:48;;;;;;;9.48;4.70;;;;;;;;;;5070213;28;20009;-67
2022/04/13 00:11:14;;;;;;;8.18;4.80;;;;;;;;;;5068347;28;20440;-67
2022/04/13 00:13:40;;;;;;;7.53;4.75;;;;;;;;;;5068722;28;20032;-68
2022/04/13 00:16:07;;;;;;;9.23;4.15;;;;;;;;;;5067606;28;20033;-68
2022/04/13 00:18:33;;;;;;;9.32;4.80;;;;;;;;;;5063472;28;20096;-67
2022/04/13 00:21:00;;;;;;;10.98;4.65;;;;;;;;;;5057103;28;20025;-67
2022/04/13 00:23:26;;;;;;;10.57;4.93;;;;;;;;;;5061229;28;20107;-67
2022/04/13 00:25:52;;;;;;;9.18;5.13;;;;;;;;;;5073147;28;20073;-67
2022/04/13 00:28:18;;;;;;;8.25;4.25;;;;;;;;;;5069199;28;20040;-67
2022/04/13 00:30:45;;;;;;;10.85;4.82;;;;;;;;;;5069643;28;20016;-67
2022/04/13 00:33:11;;;;;;;9.38;4.93;;;;;;;;;;5068821;28;20035;-67
2022/04/13 00:35:37;;;;;;;8.23;4.78;;;;;;;;;;5068832;28;20099;-67
2022/04/13 00:38:03;;;;;;;9.00;4.63;;;;;;;;;;5073089;28;20142;-68
2022/04/13 00:40:30;;;;;;;11.75;4.63;;;;;;;;;;5064329;28;20020;-67
2022/04/13 00:42:56;;;;;;;11.20;4.30;;;;;;;;;;5069912;28;20056;-67
2022/04/13 00:45:22;;;;;;;9.38;4.97;;;;;;;;;;5066906;28;20078;-67
2022/04/13 00:47:48;;;;;;;10.20;4.65;;;;;;;;;;5063597;28;20020;-67
2022/04/13 00:50:14;;;;;;;8.30;4.25;;;;;;;;;;5068376;28;20036;-67
2022/04/13 00:52:46;;;;;;;9.27;4.55;;;;;;;;;;5068514;28;20060;-67
2022/04/13 00:55:14;;;;;;;9.85;4.50;;;;;;;;;;5067847;28;20021;-67
2022/04/13 00:57:40;;;;;;;7.65;4.30;;;;;;;;;;5069579;28;20024;-68
2022/04/13 01:00:08;;;;;;;8.68;4.32;;;;;;;;;;5068009;28;20032;-67
2022/04/13 01:02:36;;;;;;;10.93;5.22;;;;;;;;;;5068079;28;20040;-67
2022/04/13 01:05:04;;;;;;;13.35;4.00;;;;;;;;;;5060735;28;20478;-67
2022/04/13 01:07:30;;;;;;;12.55;4.45;;;;;;;;;;5069529;28;20039;-67
2022/04/13 01:09:56;;;;;;;9.13;4.68;;;;;;;;;;5067076;28;20484;-67
2022/04/13 01:12:22;;;;;;;10.60;4.45;;;;;;;;;;5068466;28;20032;-67
2022/04/13 01:14:48;;;;;;;10.15;4.60;;;;;;;;;;5067396;28;20025;-67
2022/04/13 01:17:14;;;;;;;8.18;4.35;;;;;;;;;;5068871;28;20029;-68
2022/04/13 01:19:40;;;;;;;12.85;3.80;;;;;;;;;;5068762;28;20020;-67
2022/04/13 01:22:19;;;;;;;10.77;4.10;;;;;;;;;;5072955;28;20099;-67
2022/04/13 01:24:45;;;;;;;12.07;4.30;;;;;;;;;;5072409;28;20052;-67
2022/04/13 01:27:14;;;;;;;10.45;4.22;;;;;;;;;;5073793;28;20035;-67
2022/04/13 01:29:40;;;;;;;8.30;4.50;;;;;;;;;;5054579;28;20032;-67
2022/04/13 01:32:06;;;;;;;7.28;4.10;;;;;;;;;;5070380;28;20033;-68
2022/04/13 01:34:32;;;;;;;8.90;4.35;;;;;;;;;;5072298;28;20036;-67
2022/04/13 01:36:58;;;;;;;9.07;4.40;;;;;;;;;;5072430;28;20032;-67
2022/04/13 01:39:24;;;;;;;11.70;4.13;;;;;;;;;;5061530;28;20444;-67
2022/04/13 01:41:50;;;;;;;11.73;4.25;;;;;;;;;;5078165;28;20028;-67
2022/04/13 01:44:16;;;;;;;6.90;3.85;;;;;;;;;;5070169;28;20361;-67
2022/04/13 01:46:42;;;;;;;11.48;4.38;;;;;;;;;;5071090;28;20024;-67
2022/04/13 01:49:08;;;;;;;9.90;4.40;;;;;;;;;;5078118;28;20024;-67
2022/04/13 01:51:34;;;;;;;7.45;3.90;;;;;;;;;;5069950;28;20432;-67
2022/04/13 01:54:00;;;;;;;6.32;3.72;;;;;;;;;;5071427;28;20165;-67
2022/04/13 01:56:26;;;;;;;7.93;3.95;;;;;;;;;;5062505;28;20016;-67
2022/04/13 01:58:52;;;;;;;7.53;4.50;;;;;;;;;;5072213;28;20381;-67
2022/04/13 02:01:19;;;;;;;9.32;4.25;;;;;;;;;;5070933;28;20079;-67
2022/04/13 02:03:45;;;;;;;8.90;3.85;;;;;;;;;;5064877;28;20033;-67
2022/04/13 02:06:11;;;;;;;7.88;3.95;;;;;;;;;;5069921;28;20126;-67
2022/04/13 02:08:37;;;;;;;7.68;4.43;;;;;;;;;;5072846;28;20044;-67
2022/04/13 02:11:03;;;;;;;8.93;4.05;;;;;;;;;;5071469;28;20028;-68
2022/04/13 02:13:30;;;;;;;5.43;3.47;;;;;;;;;;5070902;28;20114;-67
2022/04/13 02:15:56;;;;;;;5.38;3.13;;;;;;;;;;5066682;28;20377;-68
2022/04/13 02:18:22;;;;;;;8.25;3.83;;;;;;;;;;5070334;28;20413;-68
2022/04/13 02:20:48;;;;;;;8.60;4.03;;;;;;;;;;5066123;28;20024;-67
2022/04/13 02:23:14;;;;;;;10.40;4.85;;;;;;;;;;5050893;28;20070;-67
2022/04/13 02:25:40;;;;;;;7.68;4.30;;;;;;;;;;5062635;28;20040;-68
2022/04/13 02:28:07;;;;;;;10.18;4.68;;;;;;;;;;5062047;28;20025;-67
2022/04/13 02:30:33;;;;;;;7.43;4.07;;;;;;;;;;5069915;28;20086;-67
2022/04/13 02:32:59;;;;;;;11.25;4.53;;;;;;;;;;5067882;28;20036;-67
2022/04/13 02:35:26;;;;;;;6.97;3.72;;;;;;;;;;5070788;28;20031;-67
2022/04/13 02:37:52;;;;;;;6.75;3.50;;;;;;;;;;5070282;28;20052;-67
2022/04/13 02:40:19;;;;;;;8.77;3.85;;;;;;;;;;5072325;28;20542;-67
2022/04/13 02:42:46;;;;;;;4.68;3.33;;;;;;;;;;5070658;28;20025;-67
2022/04/13 02:45:12;;;;;;;7.70;3.55;;;;;;;;;;5059560;28;20386;-68
2022/04/13 02:47:38;;;;;;;11.73;4.32;;;;;;;;;;5069459;28;20358;-68
2022/04/13 02:50:06;;;;;;;6.70;3.35;;;;;;;;;;5062141;28;20116;-67
2022/04/13 02:52:32;;;;;;;11.05;3.58;;;;;;;;;;5060077;28;20021;-67
2022/04/13 02:54:59;;;;;;;7.38;3.70;;;;;;;;;;5073599;28;20115;-68
2022/04/13 02:57:25;;;;;;;7.30;3.30;;;;;;;;;;5070184;28;20039;-67
2022/04/13 02:59:51;;;;;;;8.15;3.50;;;;;;;;;;5050899;28;20024;-67
2022/04/13 03:02:17;;;;;;;7.50;3.78;;;;;;;;;;5079081;28;20024;-67
2022/04/13 03:04:45;;;;;;;7.15;3.13;;;;;;;;;;5056111;28;20033;-67
2022/04/13 03:07:12;;;;;;;10.40;3.83;;;;;;;;;;5059226;28;20493;-67
2022/04/13 03:09:38;;;;;;;7.90;4.00;;;;;;;;;;5064503;28;20486;-67
2022/04/13 03:12:04;;;;;;;9.02;3.33;;;;;;;;;;5063039;28;20531;-67
2022/04/13 03:14:30;;;;;;;7.22;3.42;;;;;;;;;;5071137;28;20059;-67
2022/04/13 03:16:59;;;;;;;9.18;3.67;;;;;;;;;;5073234;28;20055;-67
2022/04/13 03:22:32;;;;;;;5.10;3.20;;;;;;;;;;5069573;28;20145;-67
2022/04/13 03:25:01;;;;;;;11.90;3.53;;;;;;;;;;5069258;28;20021;-68
2022/04/13 03:27:27;;;;;;;14.73;3.55;;;;;;;;;;5069658;28;20048;-67
2022/04/13 03:29:53;;;;;;;8.30;3.17;;;;;;;;;;5069908;28;20056;-67
2022/04/13 03:32:19;;;;;;;6.35;3.75;;;;;;;;;;5070355;28;20024;-67
2022/04/13 03:34:45;;;;;;;5.38;3.22;;;;;;;;;;5071806;28;20051;-67
2022/04/13 03:37:11;;;;;;;4.40;3.38;;;;;;;;;;5068293;28;20817;-67
2022/04/13 03:42:27;;;;;;;9.35;3.50;;;;;;;;;;5072611;28;20524;-68
2022/04/13 03:44:53;;;;;;;7.60;3.78;;;;;;;;;;5067009;28;20020;-67
2022/04/13 03:47:19;;;;;;;9.27;3.72;;;;;;;;;;5067359;28;20028;-67
2022/04/13 03:49:45;;;;;;;13.45;4.15;;;;;;;;;;5067896;28;20041;-68
2022/04/13 03:52:11;;;;;;;4.10;2.80;;;;;;;;;;5068857;28;20085;-67
2022/04/13 03:54:37;;;;;;;7.15;3.70;;;;;;;;;;5074708;28;20028;-67
2022/04/13 03:57:03;;;;;;;7.53;3.53;;;;;;;;;;5069020;28;20035;-67
2022/04/13 03:59:29;;;;;;;6.00;3.45;;;;;;;;;;5066492;28;20177;-67
2022/04/13 04:01:55;;;;;;;7.40;3.83;;;;;;;;;;5063596;28;20520;-67
2022/04/13 04:04:21;;;;;;;7.03;3.17;;;;;;;;;;5067281;28;20024;-68
2022/04/13 04:06:47;;;;;;;12.27;3.90;;;;;;;;;;5060696;28;20016;-67
2022/04/13 04:09:13;;;;;;;8.20;4.22;;;;;;;;;;5060715;28;20020;-68
2022/04/13 04:11:39;;;;;;;11.52;3.90;;;;;;;;;;5060476;28;20021;-67
2022/04/13 04:14:05;;;;;;;12.15;4.05;;;;;;;;;;5069222;28;20123;-68
2022/04/13 04:16:31;;;;;;;14.18;4.85;;;;;;;;;;5067738;28;20028;-68
2022/04/13 04:18:57;;;;;;;12.68;5.03;;;;;;;;;;5070733;28;20090;-68
2022/04/13 04:21:23;;;;;;;14.25;5.07;;;;;;;;;;5068468;28;20040;-68
2022/04/13 04:23:49;;;;;;;8.27;4.45;;;;;;;;;;5080073;28;20024;-68
2022/04/13 04:26:15;;;;;;;14.38;4.70;;;;;;;;;;5070890;28;20051;-68
2022/04/13 04:28:42;;;;;;;9.90;4.35;;;;;;;;;;5074244;28;20457;-67
2022/04/13 04:31:08;;;;;;;10.40;4.57;;;;;;;;;;5060339;28;20065;-67
2022/04/13 04:33:34;;;;;;;10.73;4.35;;;;;;;;;;5059843;28;20673;-68
2022/04/13 04:36:00;;;;;;;11.05;4.70;;;;;;;;;;5067721;28;20044;-68
2022/04/13 04:38:32;;;;;;;9.30;4.82;;;;;;;;;;5050346;28;20058;-68
2022/04/13 04:40:59;;;;;;;8.00;3.95;;;;;;;;;;5068957;28;20028;-68
2022/04/13 04:43:25;;;;;;;13.45;4.30;;;;;;;;;;5074715;28;20155;-68
2022/04/13 04:45:51;;;;;;;10.45;3.97;;;;;;;;;;5060234;28;20127;-68
2022/04/13 04:48:17;;;;;;;22.52;3.90;;;;;;;;;;5074502;28;20028;-68
2022/04/13 04:50:43;;;;;;;9.52;4.28;;;;;;;;;;5071752;28;20024;-68
2022/04/13 04:53:09;;;;;;;7.93;4.07;;;;;;;;;;5076433;28;20024;-67
2022/04/13 04:55:35;;;;;;;20.27;4.03;;;;;;;;;;5076765;28;20101;-67
2022/04/13 04:58:03;;;;;;;15.00;4.28;;;;;;;;;;5076504;28;20028;-68
2022/04/13 05:00:29;;;;;;;11.65;3.92;;;;;;;;;;5072033;28;20324;-64
2022/04/13 05:02:56;;;;;;;10.20;4.13;;;;;;;;;;5070343;28;20028;-64
2022/04/13 05:05:22;;;;;;;8.60;4.07;;;;;;;;;;5069897;28;20032;-64
2022/04/13 05:07:48;;;;;;;10.95;4.15;;;;;;;;;;5064431;28;20095;-64
2022/04/13 05:10:14;;;;;;;6.43;3.55;;;;;;;;;;5071708;28;20016;-64
2022/04/13 05:12:44;;;;;;;8.05;3.58;;;;;;;;;;5072168;28;20732;-64
2022/04/13 05:15:11;;;;;;;11.55;4.03;;;;;;;;;;5071914;28;20028;-64
2022/04/13 05:17:37;;;;;;;7.70;3.42;;;;;;;;;;5068180;28;20017;-64
2022/04/13 05:20:04;;;;;;;8.20;4.15;;;;;;;;;;5069621;28;20025;-63
2022/04/13 05:22:30;;;;;;;12.38;3.53;;;;;;;;;;5072060;28;20055;-64
2022/04/13 05:25:01;;;;;;;15.20;4.13;;;;;;;;;;5072947;28;20113;-64
2022/04/13 05:27:26;;;;;;;;;;;;;;;;;;5070592;28;20480;-64
2022/04/13 05:29:52;;;;;;;15.52;4.10;;;;;;;;;;5066074;28;20050;-64
2022/04/13 05:32:18;;;;;;;9.00;3.88;;;;;;;;;;5054025;28;20028;-64
2022/04/13 05:34:44;;;;;;;11.25;3.22;;;;;;;;;;5070846;28;20043;-64
2022/04/13 05:37:10;;;;;;;11.73;3.83;;;;;;;;;;5071628;28;20109;-64
2022/04/13 05:39:38;;;;;;;13.20;3.58;;;;;;;;;;5065432;28;20028;-63
2022/04/13 05:42:04;;;;;;;9.55;3.60;;;;;;;;;;5067230;28;20549;-63
2022/04/13 05:44:30;;;;;;;13.18;3.80;;;;;;;;;;5062119;28;20546;-64
2022/04/13 05:46:56;;;;;;;10.25;3.70;;;;;;;;;;5066044;28;20100;-63
2022/04/13 05:49:22;;;;;;;10.93;3.47;;;;;;;;;;5070537;28;20028;-64
2022/04/13 05:51:48;;;;;;;8.07;3.88;;;;;;;;;;5072018;28;20032;-64
2022/04/13 05:54:16;;;;;;;9.45;3.53;;;;;;;;;;5070606;28;20091;-64
2022/04/13 05:56:42;;;;;;;15.93;4.50;;;;;;;;;;5073195;28;20024;-64
2022/04/13 05:59:11;;;;;;;10.35;4.03;;;;;;;;;;5058044;28;20497;-63
2022/04/13 06:01:55;;;;;;;7.03;3.87;;;;;;;;;;5073173;28;20377;-63
2022/04/13 06:04:23;;;;;;;12.80;4.10;;;;;;;;;;5072955;28;20094;-64
2022/04/13 06:06:49;;;;;;;7.70;3.95;;;;;;;;;;5070321;28;20032;-64
2022/04/13 06:09:15;;;;;;;12.13;4.03;;;;;;;;;;5062663;28;20503;-64
2022/04/13 06:11:41;;;;;;;10.10;4.25;;;;;;;;;;5063095;28;20020;-64
2022/04/13 06:14:07;;;;;;;12.43;3.97;;;;;;;;;;5063310;28;20055;-63
2022/04/13 06:16:33;;;;;;;17.90;4.07;;;;;;;;;;5072225;28;20055;-64
2022/04/13 06:18:59;;;;;;;11.85;4.45;;;;;;;;;;5057883;28;20061;-64
2022/04/13 06:21:25;;;;;;;9.90;4.35;;;;;;;;;;5066927;28;20036;-64
2022/04/13 06:23:51;;;;;;;9.63;4.03;;;;;;;;;;5055778;28;20016;-63
2022/04/13 06:26:17;;;;;;;10.13;3.88;;;;;;;;;;5070945;28;20475;-65
2022/04/13 06:28:44;;;;;;;8.32;3.72;;;;;;;;;;5060717;28;20108;-64
2022/04/13 06:31:10;;;;;;;7.30;3.65;;;;;;;;;;5068078;28;20021;-63
2022/04/13 06:33:36;;;;;;;7.75;3.55;;;;;;;;;;5061454;28;20048;-64
2022/04/13 06:36:05;;;;;;;8.38;4.50;;;;;;;;;;5061415;28;20060;-63
2022/04/13 06:38:31;;;;;;;13.68;3.75;;;;;;;;;;5063526;28;20028;-64
2022/04/13 06:40:57;;;;;;;9.95;4.63;;;;;;;;;;5054210;28;20578;-64
2022/04/13 06:43:23;;;;;;;9.85;4.22;;;;;;;;;;5071667;28;20028;-64
2022/04/13 06:45:49;;;;;;;13.18;3.75;;;;;;;;;;5065486;28;20454;-64
2022/04/13 06:48:15;;;;;;;10.63;4.20;;;;;;;;;;5071576;28;20020;-64
2022/04/13 06:50:41;;;;;;;12.20;4.40;;;;;;;;;;5070332;28;20850;-64
2022/04/13 06:53:07;;;;;;;16.65;4.30;;;;;;;;;;5063270;28;20039;-64
2022/04/13 06:55:33;;;;;;;18.77;4.90;;;;;;;;;;5050900;28;20501;-64
2022/04/13 06:57:59;;;;;;;7.53;4.03;;;;;;;;;;5071022;28;20161;-64
2022/04/13 07:00:25;;;;;;;10.57;4.00;;;;;;;;;;5069778;28;20123;-64
2022/04/13 07:02:57;;;;;;;8.50;4.10;;;;;;;;;;5062151;28;20267;-64
2022/04/13 07:05:23;;;;;;;8.73;4.25;;;;;;;;;;5067593;28;20165;-64
2022/04/13 07:07:49;;;;;;;11.43;4.13;;;;;;;;;;5057781;28;20021;-64
2022/04/13 07:10:15;;;;;;;10.25;4.45;;;;;;;;;;5066851;28;20036;-64
2022/04/13 07:12:41;;;;;;;6.70;3.65;;;;;;;;;;5071672;28;20027;-64
2022/04/13 07:15:07;;;;;;;9.45;4.55;;;;;;;;;;5065746;28;20108;-64
2022/04/13 07:17:34;;;;;;;10.43;4.22;;;;;;;;;;5069124;28;20043;-64
2022/04/13 07:20:00;;;;;;;11.95;4.40;;;;;;;;;;5053718;28;20029;-63
2022/04/13 07:22:26;;;;;;;16.85;4.78;;;;;;;;;;5068041;28;20115;-64
2022/04/13 07:24:52;;;;;;;9.82;4.60;;;;;;;;;;5062591;28;20100;-63
2022/04/13 07:27:18;;;;;;;9.25;3.70;;;;;;;;;;5061498;28;20023;-64
2022/04/13 07:29:44;;;;;;;11.77;4.38;;;;;;;;;;5069498;28;20024;-64
2022/04/13 07:32:10;;;;;;;15.40;4.05;;;;;;;;;;5063394;28;20019;-64
2022/04/13 07:34:36;;;;;;;11.23;3.65;;;;;;;;;;5068476;28;20374;-64
2022/04/13 07:37:03;;;;;;;13.73;4.63;;;;;;;;;;5048753;28;20393;-63
2022/04/13 07:39:30;;;;;;;14.15;4.78;;;;;;;;;;5071443;28;20032;-63
2022/04/13 07:41:56;;;;;;;10.52;4.70;;;;;;;;;;5048289;28;20040;-64
2022/04/13 07:44:22;;;;;;;10.15;4.45;;;;;;;;;;5067828;28;20021;-64
2022/04/13 07:46:48;;;;;;;6.22;4.03;;;;;;;;;;5071182;28;20066;-64
2022/04/13 07:49:14;;;;;;;7.18;3.58;;;;;;;;;;5071567;28;20396;-64
2022/04/13 07:51:40;;;;;;;9.35;4.82;;;;;;;;;;5068699;28;20020;-64
2022/04/13 07:54:07;;;;;;;9.48;4.47;;;;;;;;;;5069540;28;20499;-64
2022/04/13 07:56:33;;;;;;;13.30;4.65;;;;;;;;;;5069556;28;20047;-64
2022/04/13 07:58:59;;;;;;;12.50;4.95;;;;;;;;;;5069621;28;20035;-64
2022/04/13 08:01:25;;;;;;;12.20;4.55;;;;;;;;;;5069292;28;20505;-64
2022/04/13 08:03:51;;;;;;;7.32;4.60;;;;;;;;;;5069227;28;20125;-64
2022/04/13 08:06:17;;;;;;;11.00;5.10;;;;;;;;;;5068263;28;20036;-64
2022/04/13 08:08:43;;;;;;;8.48;4.63;;;;;;;;;;5060445;28;20082;-63
2022/04/13 08:11:09;;;;;;;11.25;4.45;;;;;;;;;;5068175;28;20032;-65
2022/04/13 08:13:35;;;;;;;8.85;4.57;;;;;;;;;;5050303;28;20029;-64
2022/04/13 08:16:01;;;;;;;13.95;5.00;;;;;;;;;;5051298;28;20033;-64
2022/04/13 08:18:27;;;;;;;14.02;4.45;;;;;;;;;;5068443;28;20066;-64
2022/04/13 08:20:53;;;;;;;16.17;6.10;;;;;;;;;;5069582;28;20029;-64
2022/04/13 08:23:19;;;;;;;13.00;5.15;;;;;;;;;;5076243;28;20437;-64
2022/04/13 08:25:45;;;;;;;10.48;4.38;;;;;;;;;;5055929;28;20032;-64
2022/04/13 08:28:11;;;;;;;10.65;5.05;;;;;;;;;;5070772;28;20062;-64
2022/04/13 08:30:37;;;;;;;19.35;4.53;;;;;;;;;;5075794;28;20036;-64
2022/04/13 08:33:03;;;;;;;16.45;5.35;;;;;;;;;;5076125;28;20381;-64
2022/04/13 08:35:29;;;;;;;14.55;5.22;;;;;;;;;;5074880;28;20028;-64
2022/04/13 08:37:55;;;;;;;16.67;4.75;;;;;;;;;;5072179;28;20035;-64
2022/04/13 08:40:22;;;;;;;18.48;6.38;;;;;;;;;;5072214;28;20225;-65
2022/04/13 08:42:57;;;;;;;12.45;4.60;;;;;;;;;;5058221;28;20073;-64
2022/04/13 08:45:30;;;;;;;9.80;4.47;;;;;;;;;;5074507;28;20028;-64
2022/04/13 08:48:00;;;;;;;12.48;5.53;;;;;;;;;;5066029;28;20033;-64
2022/04/13 08:50:27;;;;;;;13.25;5.10;;;;;;;;;;5074865;28;20530;-64
2022/04/13 08:52:57;;;;;;;10.15;4.72;;;;;;;;;;5075098;28;20017;-64
2022/04/13 08:55:24;;;;;;;14.38;4.65;;;;;;;;;;5067447;28;20034;-64
2022/04/13 08:57:50;;;;;;;13.60;6.50;;;;;;;;;;5057429;28;20027;-64
2022/04/13 09:00:20;;;;;;;10.10;4.85;;;;;;;;;;5055874;28;20350;-64
2022/04/13 09:02:49;;;;;;;15.60;5.05;;;;;;;;;;5072282;28;20398;-64
2022/04/13 09:05:16;;;;;;;16.40;5.47;;;;;;;;;;5070029;28;20465;-64
2022/04/13 09:07:43;;;;;;;11.18;4.93;;;;;;;;;;5055408;28;20037;-65
2022/04/13 09:10:23;;;;;;;14.43;4.47;;;;;;;;;;5065826;28;20031;-65
2022/04/13 09:12:50;;;;;;;12.45;5.25;;;;;;;;;;5066566;28;20029;-64
2022/04/13 09:15:16;;;;;;;15.43;5.18;;;;;;;;;;5056930;28;20532;-64
2022/04/13 09:17:43;;;;;;;11.63;5.10;;;;;;;;;;5075501;28;20527;-64
2022/04/13 09:23:14;;;;;;;12.43;4.70;;;;;;;;;;5099473;22;20108;-67
2022/04/13 09:25:41;;;;;;;10.40;5.38;;;;;;;;;;5117156;28;20023;-67
2022/04/13 09:28:07;;;;;;;15.95;5.60;;;;;;;;;;5117717;28;20024;-67
2022/04/13 09:30:33;;;;;;;10.20;2.72;;;;;;;;;;5112239;28;20024;-67
2022/04/13 09:33:01;;;;;;;13.45;4.85;;;;;;;;;;5114043;28;20388;-67
2022/04/13 09:35:27;;;;;;;19.85;5.53;;;;;;;;;;5111136;28;20028;-68
2022/04/13 09:37:53;;;;;;;17.05;5.78;;;;;;;;;;5086349;28;20012;-67
2022/04/13 09:40:46;;;;;;;15.63;5.20;;;;;;;;;;5104244;28;20034;-67
2022/04/13 09:43:13;;;;;;;18.40;6.15;;;;;;;;;;5105373;28;20067;-67
2022/04/13 09:45:42;;;;;;;16.50;6.40;;;;;;;;;;5108858;28;20031;-67
2022/04/13 09:48:09;;;;;;;16.63;6.80;;;;;;;;;;5108746;28;20020;-67
2022/04/13 09:50:37;;;;;;;15.48;6.28;;;;;;;;;;5108926;28;20057;-67
2022/04/13 09:53:05;;;;;;;16.60;6.32;;;;;;;;;;5108518;28;20020;-67
2022/04/13 09:55:31;;;;;;;14.80;5.40;;;;;;;;;;5099646;28;20408;-67
2022/04/13 09:58:04;;;;;;;14.57;5.78;;;;;;;;;;5106611;28;20015;-67
2022/04/13 10:00:30;;;;;;;17.58;6.03;;;;;;;;;;5109463;28;20019;-68
2022/04/13 10:03:06;;;;;;;17.40;6.28;;;;;;;;;;5105474;28;20019;-68
2022/04/13 10:05:32;;;;;;;17.35;6.28;;;;;;;;;;5103408;28;20527;-68
2022/04/13 10:08:22;;;;;;;21.63;6.38;;;;;;;;;;5107009;28;20024;-67
2022/04/13 10:10:48;;;;;;;17.87;6.67;;;;;;;;;;5107922;28;20089;-67
2022/04/13 10:13:33;;;;;;;15.88;5.32;;;;;;;;;;5107138;28;20770;-67
2022/04/13 10:16:01;;;;;;;15.45;6.03;;;;;;;;;;5123444;27;20544;-68
2022/04/13 10:18:28;;;;;;;21.10;7.35;;;;;;;;;;5069255;28;20384;-67
2022/04/13 10:20:54;;;;;;;21.40;6.75;;;;;;;;;;5112053;27;20293;-67
2022/04/13 10:23:20;;;;;;;15.30;6.55;;;;;;;;;;5105938;28;20035;-67
2022/04/13 10:25:46;;;;;;;16.45;5.53;;;;;;;;;;5111458;28;20510;-67
2022/04/13 10:28:20;;;;;;;12.82;5.60;;;;;;;;;;5092434;28;20476;-67
2022/04/13 10:30:48;;;;;;;13.60;5.82;;;;;;;;;;5107594;28;20027;-67
2022/04/13 10:33:15;;;;;;;13.48;5.35;;;;;;;;;;5109812;28;20031;-67
2022/04/13 10:35:42;;;;;;;17.33;6.00;;;;;;;;;;5103514;28;20020;-68
2022/04/13 10:38:08;;;;;;;12.18;4.95;;;;;;;;;;5104130;28;20424;-67
2022/04/13 10:40:36;;;;;;;11.52;5.07;;;;;;;;;;5106846;28;20027;-68
2022/04/13 10:43:06;;;;;;;11.43;4.63;;;;;;;;;;5107231;28;20053;-68
2022/04/13 10:45:35;;;;;;;10.38;4.10;;;;;;;;;;5106986;28;20030;-67
2022/04/13 10:48:05;;;;;;;10.68;4.95;;;;;;;;;;5113792;28;20102;-67
2022/04/13 10:53:50;;;;;;;12.32;4.90;;;;;;;;;;5099722;28;20133;-67
2022/04/13 10:56:20;;;;;;;12.00;5.35;;;;;;;;;;5110563;28;20114;-67
2022/04/13 10:58:58;;;;;;;15.32;6.13;;;;;;;;;;5110053;28;20107;-67
2022/04/13 11:01:26;;;;;;;13.27;5.88;;;;;;;;;;5111146;28;20180;-68
2022/04/13 11:03:54;;;;;;;14.20;5.78;;;;;;;;;;5117727;27;20028;-68
2022/04/13 11:06:20;;;;;;;14.65;6.68;;;;;;;;;;5107138;28;20030;-67
2022/04/13 11:08:50;;;;;;;20.08;6.43;;;;;;;;;;5107203;28;20034;-67
2022/04/13 11:11:18;;;;;;;15.38;5.35;;;;;;;;;;5107738;28;20032;-68
2022/04/13 11:13:45;;;;;;;18.83;6.35;;;;;;;;;;5105268;28;20042;-68
2022/04/13 11:16:15;;;;;;;17.33;5.40;;;;;;;;;;5091385;28;20062;-67
2022/04/13 11:18:42;;;;;;;;;;;;;;;;;;5101554;28;20028;-68
2022/04/13 11:21:09;;;;;;;12.02;6.65;;;;;;;;;;5087407;28;19956;-68
2022/04/13 11:23:44;;;;;;;14.85;5.03;;;;;;;;;;5102753;28;20036;-69
2022/04/13 11:26:11;;;;;;;13.85;5.00;;;;;;;;;;5110489;28;20024;-68
2022/04/13 11:28:37;;;;;;;13.07;5.50;;;;;;;;;;5106311;28;20464;-68
2022/04/13 11:31:04;;;;;;;16.75;5.03;;;;;;;;;;5104459;28;20034;-69
2022/04/13 11:33:43;;;;;;;14.25;6.10;;;;;;;;;;5105135;28;20035;-68
2022/04/13 11:36:10;;;;;;;13.17;4.27;;;;;;;;;;5102704;28;20023;-69
2022/04/13 11:38:36;;;;;;;13.48;4.35;;;;;;;;;;5106659;27;20544;-68
2022/04/13 11:41:07;;;;;;;7.68;3.70;;;;;;;;;;5107252;28;20106;-69
2022/04/13 11:43:33;;;;;;;11.73;3.53;;;;;;;;;;5104176;28;20102;-68
2022/04/13 11:46:00;;;;;;;12.02;3.55;;;;;;;;;;5101491;28;20032;-68
2022/04/13 11:48:32;;;;;;;9.00;3.08;;;;;;;;;;5108880;28;20054;-69
2022/04/13 11:51:17;;;;;;;11.98;3.88;;;;;;;;;;5107680;28;20468;-68
2022/04/13 11:53:56;;;;;;;9.43;3.45;;;;;;;;;;5102549;28;20715;-68
2022/04/13 11:56:45;;;;;;;8.07;3.28;;;;;;;;;;5104175;28;20480;-68
2022/04/13 11:59:15;;;;;;;9.23;3.35;;;;;;;;;;5109596;28;20034;-68
2022/04/13 12:01:54;;;;;;;5.60;2.70;;;;;;;;;;5106613;28;20066;-68
2022/04/13 12:04:24;;;;;;;15.18;3.28;;;;;;;;;;5109202;28;20028;-69
2022/04/13 12:06:50;;;;;;;6.55;2.70;;;;;;;;;;5080926;28;20028;-68
2022/04/13 12:09:17;;;;;;;14.90;4.22;;;;;;;;;;5084964;28;20118;-68
2022/04/13 12:11:45;;;;;;;28.42;5.68;;;;;;;;;;5109172;28;20024;-69
2022/04/13 12:14:13;;;;;;;9.20;3.45;;;;;;;;;;5102412;28;20120;-68
2022/04/13 12:16:39;;;;;;;8.55;2.60;;;;;;;;;;5101820;28;20563;-69
2022/04/13 12:19:12;;;;;;;8.05;3.53;;;;;;;;;;5098233;28;20020;-68
2022/04/13 12:21:38;;;;;;;11.40;3.42;;;;;;;;;;5083688;28;20032;-69
2022/04/13 12:24:05;;;;;;;8.43;3.15;;;;;;;;;;5107176;28;20031;-68
2022/04/13 12:26:35;;;;;;;7.40;3.50;;;;;;;;;;5103145;28;20047;-69
2022/04/13 12:29:02;;;;;;;7.90;3.55;;;;;;;;;;5079273;28;20205;-68
2022/04/13 12:31:28;;;;;;;7.13;3.08;;;;;;;;;;5102426;28;20020;-69
2022/04/13 12:34:01;;;;;;;9.43;2.13;;;;;;;;;;5100228;28;20067;-69
2022/04/13 12:36:27;;;;;;;7.03;3.13;;;;;;;;;;5093541;28;20031;-69
2022/04/13 12:38:57;;;;;;;5.22;2.55;;;;;;;;;;5095145;28;20105;-69
2022/04/13 12:41:24;;;;;;;5.07;2.25;;;;;;;;;;5094774;28;20136;-69
2022/04/13 12:43:51;;;;;;;4.75;2.10;;;;;;;;;;5103829;28;20035;-69
2022/04/13 12:46:19;;;;;;;9.13;2.55;;;;;;;;;;5097802;28;20024;-69
2022/04/13 12:48:46;;;;;;;4.72;2.35;;;;;;;;;;5103192;28;20024;-69
2022/04/13 12:51:13;;;;;;;7.93;1.67;;;;;;;;;;5100070;28;20382;-68
2022/04/13 12:53:43;;;;;;;4.25;2.30;;;;;;;;;;5099152;28;20036;-70
2022/04/13 12:56:13;;;;;;;9.43;2.28;;;;;;;;;;5106555;28;20016;-69
2022/04/13 12:58:39;;;;;;;8.37;3.03;;;;;;;;;;5103810;28;20023;-68
2022/04/13 13:01:06;;;;;;;9.65;3.60;;;;;;;;;;5096924;28;21001;-68
2022/04/13 13:03:37;;;;;;;9.07;2.75;;;;;;;;;;5100287;28;20077;-69
2022/04/13 13:06:10;;;;;;;12.85;2.75;;;;;;;;;;5101274;28;20091;-69
2022/04/13 13:08:37;;;;;;;7.97;3.40;;;;;;;;;;5082181;28;20080;-69
2022/04/13 13:11:08;;;;;;;11.65;3.78;;;;;;;;;;5105254;28;20073;-69
2022/04/13 13:13:38;;;;;;;7.40;2.67;;;;;;;;;;5108162;28;20023;-69
2022/04/13 13:16:05;;;;;;;5.20;2.70;;;;;;;;;;5105591;28;20012;-69
2022/04/13 13:18:31;;;;;;;7.88;3.35;;;;;;;;;;5100353;28;20031;-69
2022/04/13 13:20:57;;;;;;;16.75;3.80;;;;;;;;;;5102176;28;20024;-69
2022/04/13 13:23:28;;;;;;;11.50;3.13;;;;;;;;;;5090249;28;20382;-70
2022/04/13 13:25:54;;;;;;;11.25;3.50;;;;;;;;;;5099208;28;20054;-69
2022/04/13 13:28:27;;;;;;;5.75;2.30;;;;;;;;;;5102198;28;20028;-69
2022/04/13 13:30:54;;;;;;;8.05;2.95;;;;;;;;;;5103716;28;20020;-69
2022/04/13 13:33:21;;;;;;;7.05;2.97;;;;;;;;;;5112582;28;20039;-69
2022/04/13 13:35:47;;;;;;;9.80;3.97;;;;;;;;;;5111465;28;20047;-69
2022/04/13 13:38:18;;;;;;;10.20;3.00;;;;;;;;;;5102667;28;20051;-70
2022/04/13 13:40:46;;;;;;;9.25;3.58;;;;;;;;;;5097341;28;20028;-70
2022/04/13 13:43:15;;;;;;;6.18;2.13;;;;;;;;;;5089415;28;20403;-69
2022/04/13 13:45:42;;;;;;;6.38;2.90;;;;;;;;;;5112028;28;20011;-69
2022/04/13 13:48:09;;;;;;;9.15;3.08;;;;;;;;;;5110656;28;20088;-69
2022/04/13 13:50:36;;;;;;;6.53;2.75;;;;;;;;;;5106666;28;20023;-68
2022/04/13 13:53:02;;;;;;;14.75;2.83;;;;;;;;;;5104578;28;20023;-69
2022/04/13 13:55:29;;;;;;;9.07;3.13;;;;;;;;;;5101464;28;20524;-69
2022/04/13 13:57:56;;;;;;;8.85;3.05;;;;;;;;;;5101424;28;20039;-69
2022/04/13 14:00:22;;;;;;;8.45;3.42;;;;;;;;;;5097248;28;20020;-69
2022/04/13 14:02:55;;;;;;;9.90;3.60;;;;;;;;;;5108953;28;20032;-69
2022/04/13 14:05:24;;;;;;;13.05;3.10;;;;;;;;;;5104837;28;20022;-70
2022/04/13 14:07:51;;;;;;;7.63;2.85;;;;;;;;;;5100095;28;20039;-70
2022/04/13 14:10:18;;;;;;;11.13;3.10;;;;;;;;;;5093152;28;20020;-69
2022/04/13 14:12:44;;;;;;;5.18;2.38;;;;;;;;;;5097023;28;20071;-70
2022/04/13 14:15:11;;;;;;;7.63;3.00;;;;;;;;;;5104582;28;20046;-70
2022/04/13 14:17:38;;;;;;;9.50;3.15;;;;;;;;;;5101554;28;20080;-69
2022/04/13 14:20:04;;;;;;;7.22;3.42;;;;;;;;;;5104654;28;20039;-69
2022/04/13 14:22:30;;;;;;;9.18;3.67;;;;;;;;;;5099247;28;20027;-69
2022/04/13 14:24:56;;;;;;;9.43;4.07;;;;;;;;;;5099874;28;20085;-69
2022/04/13 14:27:22;;;;;;;10.38;3.83;;;;;;;;;;5098099;28;20073;-69
2022/04/13 14:29:48;;;;;;;6.93;3.45;;;;;;;;;;5097989;28;20023;-69
2022/04/13 14:32:14;;;;;;;4.55;2.50;;;;;;;;;;5105358;28;20020;-69
2022/04/13 14:34:45;;;;;;;5.70;2.75;;;;;;;;;;5094223;28;20030;-69
2022/04/13 14:37:11;;;;;;;6.07;2.60;;;;;;;;;;5080719;28;20031;-69
2022/04/13 14:39:38;;;;;;;7.68;2.60;;;;;;;;;;5097795;28;20038;-68
2022/04/13 14:42:05;;;;;;;8.25;3.38;;;;;;;;;;5105051;28;20035;-68
2022/04/13 14:44:31;;;;;;;6.85;2.47;;;;;;;;;;5108812;28;20031;-69
2022/04/13 14:46:57;;;;;;;6.00;2.65;;;;;;;;;;5102445;28;20020;-71
2022/04/13 14:49:23;;;;;;;6.25;3.10;;;;;;;;;;5104020;28;20016;-69